TimeCDT,TemperatureF,Dew PointF,Humidity,Sea Level PressureIn,VisibilityMPH,Wind Direction,Wind SpeedMPH,Gust SpeedMPH,PrecipitationIn,Events,Conditions,WindDirDegrees,DateUTC
12:52 AM,63.0,52.0,67,29.99,10.0,South,10.4,-,N/A,,Clear,170,2013-05-14 05:52:00
1:52 AM,61.0,53.1,75,29.98,10.0,South,9.2,-,N/A,,Clear,180,2013-05-14 06:52:00
2:52 AM,60.1,52.0,75,29.97,10.0,SSW,9.2,-,N/A,,Clear,200,2013-05-14 07:52:00
3:52 AM,64.9,51.1,61,29.96,10.0,SSW,10.4,-,N/A,,Clear,210,2013-05-14 08:52:00
4:52 AM,66.0,50.0,56,29.96,10.0,SW,12.7,-,N/A,,Clear,220,2013-05-14 09:52:00
5:52 AM,64.9,48.9,56,29.96,10.0,SW,13.8,-,N/A,,Clear,220,2013-05-14 10:52:00
6:52 AM,64.9,48.9,56,29.97,10.0,SW,11.5,-,N/A,,Clear,220,2013-05-14 11:52:00
7:52 AM,68.0,48.9,50,29.98,10.0,SW,10.4,-,N/A,,Clear,230,2013-05-14 12:52:00
8:52 AM,73.0,48.9,42,29.99,10.0,WSW,16.1,28.8,N/A,,Clear,250,2013-05-14 13:52:00
9:52 AM,75.0,51.1,43,30.00,10.0,WSW,16.1,25.3,N/A,,Clear,240,2013-05-14 14:52:00
10:52 AM,78.1,52.0,40,30.00,10.0,WSW,19.6,-,N/A,,Clear,240,2013-05-14 15:52:00
11:52 AM,81.0,52.0,36,30.00,10.0,WSW,19.6,27.6,N/A,,Clear,240,2013-05-14 16:52:00
12:52 PM,84.0,53.1,34,29.99,10.0,SW,21.9,26.5,N/A,,Clear,230,2013-05-14 17:52:00
1:52 PM,84.9,55.0,36,29.96,10.0,SW,12.7,-,N/A,,Clear,230,2013-05-14 18:52:00
2:52 PM,87.1,55.0,33,29.96,10.0,SW,17.3,25.3,N/A,,Clear,230,2013-05-14 19:52:00
3:52 PM,87.1,46.9,25,29.94,10.0,WSW,23.0,32.2,N/A,,Clear,240,2013-05-14 20:52:00
4:52 PM,87.1,48.9,27,29.93,10.0,WSW,13.8,23.0,N/A,,Clear,240,2013-05-14 21:52:00
5:52 PM,84.0,51.1,32,29.93,10.0,SW,17.3,21.9,N/A,,Clear,220,2013-05-14 22:52:00
6:52 PM,82.0,52.0,35,29.92,10.0,SW,10.4,-,N/A,,Clear,230,2013-05-14 23:52:00
7:52 PM,75.9,52.0,43,29.92,10.0,SSW,10.4,-,N/A,,Clear,210,2013-05-15 00:52:00
8:52 PM,70.0,52.0,53,29.92,10.0,South,9.2,-,N/A,,Clear,190,2013-05-15 01:52:00
9:52 PM,72.0,52.0,49,29.93,10.0,SSW,13.8,-,N/A,,Clear,210,2013-05-15 02:52:00
10:52 PM,66.9,52.0,59,29.94,10.0,South,9.2,-,N/A,,Clear,180,2013-05-15 03:52:00
11:52 PM,64.0,52.0,65,29.95,10.0,South,8.1,-,N/A,,Clear,180,2013-05-15 04:52:00